Hauptseite
METAR-TAF:

METAR-TAF

Flughäfen :

Dewar Lakes, Nunavut, Kanada

Breite: 68-39N, Länge: 071-10W, Höhe: 518 m

Beobachtung

Neuester Wetterbericht von vor 49 Minuten, um 17:00 UTC
Windstille
Temperatur 1°C
Luftfeuchtigkeit 80%
Luftdruck 1003 hPa
Geschlossene Wolkendecke in der Höhe von 5500 ft

METAR: CWUW 231700Z AUTO 00000KT ////SM //// OVC055 01/M02 A2963

Zeit: 13:49 (17:49 UTC)


TAF: fehlend

Wetterbeobachtungen und Prognosen von mehr als 4000 Flughäfen (METAR und TAF Bericht).

Die verfügbaren Stationen werden durch gelbe und rote Markierungen auf der Karte dargestellt.

Führen Sie die Maus auf sie, um den Namen der Station zu sehen.

Darauf klicken, um die Beobachtung von Wetterbeobachtungen und Prognosen zu sehen.

Um die Karte zu ändern : klicken Sie auf den grünen Tasten mit einem schwarzen Kreuz Zum Vergrößern, auf den grünen Button mit einem Gedankenstrich zu verkleinern, oder auf die grünen Pfeile für benachbarte Karten.


METAR-TAF: